sensor_id;sensor_type;location;lat;lon;timestamp;temperature;humidity
5459;DHT22;2752;49.992;8.422;2022-12-11T00:02:03;-0.90;35.50
5459;DHT22;2752;49.992;8.422;2022-12-11T00:04:30;-0.80;36.00
5459;DHT22;2752;49.992;8.422;2022-12-11T00:06:57;-0.70;36.40
5459;DHT22;2752;49.992;8.422;2022-12-11T00:09:24;-0.70;35.60
5459;DHT22;2752;49.992;8.422;2022-12-11T00:11:50;-0.70;35.60
5459;DHT22;2752;49.992;8.422;2022-12-11T00:14:17;-0.60;34.80
5459;DHT22;2752;49.992;8.422;2022-12-11T00:16:44;-0.60;33.90
5459;DHT22;2752;49.992;8.422;2022-12-11T00:19:14;-0.60;32.60
5459;DHT22;2752;49.992;8.422;2022-12-11T00:21:40;-0.30;32.60
5459;DHT22;2752;49.992;8.422;2022-12-11T00:24:07;-0.60;31.70
5459;DHT22;2752;49.992;8.422;2022-12-11T00:26:34;-0.60;29.90
5459;DHT22;2752;49.992;8.422;2022-12-11T00:29:00;-0.60;30.00
5459;DHT22;2752;49.992;8.422;2022-12-11T00:31:27;-0.60;30.00
5459;DHT22;2752;49.992;8.422;2022-12-11T00:33:54;-0.60;30.20
5459;DHT22;2752;49.992;8.422;2022-12-11T00:36:24;-0.60;30.50
5459;DHT22;2752;49.992;8.422;2022-12-11T00:38:51;-0.50;31.20
5459;DHT22;2752;49.992;8.422;2022-12-11T00:41:18;-0.40;30.00
5459;DHT22;2752;49.992;8.422;2022-12-11T00:43:45;-0.40;29.10
5459;DHT22;2752;49.992;8.422;2022-12-11T00:46:12;-0.30;29.20
5459;DHT22;2752;49.992;8.422;2022-12-11T00:48:39;-0.30;27.90
5459;DHT22;2752;49.992;8.422;2022-12-11T00:51:06;-0.30;27.30
5459;DHT22;2752;49.992;8.422;2022-12-11T00:53:34;-0.30;27.80
5459;DHT22;2752;49.992;8.422;2022-12-11T00:56:07;-0.20;27.50
5459;DHT22;2752;49.992;8.422;2022-12-11T00:58:34;-0.20;25.60
5459;DHT22;2752;49.992;8.422;2022-12-11T01:01:05;-0.20;23.90
5459;DHT22;2752;49.992;8.422;2022-12-11T01:03:32;-0.20;23.40
5459;DHT22;2752;49.992;8.422;2022-12-11T01:05:58;-0.20;23.70
5459;DHT22;2752;49.992;8.422;2022-12-11T01:08:25;-0.20;24.00
5459;DHT22;2752;49.992;8.422;2022-12-11T01:11:00;-0.20;24.20
5459;DHT22;2752;49.992;8.422;2022-12-11T01:13:26;-0.20;23.70
5459;DHT22;2752;49.992;8.422;2022-12-11T01:15:53;-0.30;23.50
5459;DHT22;2752;49.992;8.422;2022-12-11T01:18:19;-0.30;23.80
5459;DHT22;2752;49.992;8.422;2022-12-11T01:20:46;-0.30;24.40
5459;DHT22;2752;49.992;8.422;2022-12-11T01:23:13;-0.30;25.30
5459;DHT22;2752;49.992;8.422;2022-12-11T01:25:41;-0.20;25.60
5459;DHT22;2752;49.992;8.422;2022-12-11T01:28:09;-0.20;25.60
5459;DHT22;2752;49.992;8.422;2022-12-11T01:30:36;-0.20;25.60
5459;DHT22;2752;49.992;8.422;2022-12-11T01:33:03;-0.10;25.00
5459;DHT22;2752;49.992;8.422;2022-12-11T01:35:30;-0.20;23.30
5459;DHT22;2752;49.992;8.422;2022-12-11T01:37:57;-0.20;24.50
5459;DHT22;2752;49.992;8.422;2022-12-11T01:40:24;-0.20;25.00
5459;DHT22;2752;49.992;8.422;2022-12-11T01:42:50;-0.10;25.00
5459;DHT22;2752;49.992;8.422;2022-12-11T01:45:33;-0.10;24.20
5459;DHT22;2752;49.992;8.422;2022-12-11T01:48:05;-0.10;24.40
5459;DHT22;2752;49.992;8.422;2022-12-11T01:50:36;0.00;25.60
5459;DHT22;2752;49.992;8.422;2022-12-11T01:53:05;0.00;20.80
5459;DHT22;2752;49.992;8.422;2022-12-11T01:55:33;-0.10;20.00
5459;DHT22;2752;49.992;8.422;2022-12-11T01:58:01;-0.50;20.90
5459;DHT22;2752;49.992;8.422;2022-12-11T02:00:29;-0.10;23.00
5459;DHT22;2752;49.992;8.422;2022-12-11T02:02:56;-0.20;25.60
5459;DHT22;2752;49.992;8.422;2022-12-11T02:05:22;-0.20;26.30
5459;DHT22;2752;49.992;8.422;2022-12-11T02:07:51;-0.20;26.30
5459;DHT22;2752;49.992;8.422;2022-12-11T02:10:19;-0.20;27.70
5459;DHT22;2752;49.992;8.422;2022-12-11T02:12:53;-0.10;30.90
5459;DHT22;2752;49.992;8.422;2022-12-11T02:15:29;0.00;30.90
5459;DHT22;2752;49.992;8.422;2022-12-11T02:18:13;-0.10;30.40
5459;DHT22;2752;49.992;8.422;2022-12-11T02:20:43;-0.10;30.70
5459;DHT22;2752;49.992;8.422;2022-12-11T02:26:24;0.00;28.10
5459;DHT22;2752;49.992;8.422;2022-12-11T02:29:00;0.00;28.90
5459;DHT22;2752;49.992;8.422;2022-12-11T02:31:33;0.00;30.90
5459;DHT22;2752;49.992;8.422;2022-12-11T02:34:05;0.00;31.20
5459;DHT22;2752;49.992;8.422;2022-12-11T02:36:36;0.00;31.30
5459;DHT22;2752;49.992;8.422;2022-12-11T02:39:07;0.00;30.40
5459;DHT22;2752;49.992;8.422;2022-12-11T02:41:35;0.00;28.30
5459;DHT22;2752;49.992;8.422;2022-12-11T02:44:04;-0.10;30.20
5459;DHT22;2752;49.992;8.422;2022-12-11T02:46:32;-0.20;29.00
5459;DHT22;2752;49.992;8.422;2022-12-11T02:49:02;-0.20;31.50
5459;DHT22;2752;49.992;8.422;2022-12-11T02:51:33;-0.20;33.60
5459;DHT22;2752;49.992;8.422;2022-12-11T02:54:02;-0.10;36.60
5459;DHT22;2752;49.992;8.422;2022-12-11T02:56:35;-0.20;38.30
5459;DHT22;2752;49.992;8.422;2022-12-11T02:59:09;-0.10;39.50
5459;DHT22;2752;49.992;8.422;2022-12-11T03:01:36;0.00;40.30
5459;DHT22;2752;49.992;8.422;2022-12-11T03:04:03;-0.10;40.80
5459;DHT22;2752;49.992;8.422;2022-12-11T03:06:33;-0.10;42.10
5459;DHT22;2752;49.992;8.422;2022-12-11T03:09:02;-0.10;43.90
5459;DHT22;2752;49.992;8.422;2022-12-11T03:11:29;-0.10;45.00
5459;DHT22;2752;49.992;8.422;2022-12-11T03:13:56;-0.10;45.20
5459;DHT22;2752;49.992;8.422;2022-12-11T03:16:29;-0.20;45.60
5459;DHT22;2752;49.992;8.422;2022-12-11T03:19:08;0.00;46.90
5459;DHT22;2752;49.992;8.422;2022-12-11T03:21:41;-0.20;47.30
5459;DHT22;2752;49.992;8.422;2022-12-11T03:24:14;-0.10;48.60
5459;DHT22;2752;49.992;8.422;2022-12-11T03:26:46;-0.10;49.50
5459;DHT22;2752;49.992;8.422;2022-12-11T03:29:18;0.00;49.90
5459;DHT22;2752;49.992;8.422;2022-12-11T03:31:51;0.00;48.70
5459;DHT22;2752;49.992;8.422;2022-12-11T03:34:23;0.00;48.70
5459;DHT22;2752;49.992;8.422;2022-12-11T03:36:52;0.00;49.60
5459;DHT22;2752;49.992;8.422;2022-12-11T03:39:23;0.00;50.70
5459;DHT22;2752;49.992;8.422;2022-12-11T03:41:52;0.20;49.30
5459;DHT22;2752;49.992;8.422;2022-12-11T03:44:21;0.10;45.60
5459;DHT22;2752;49.992;8.422;2022-12-11T03:46:51;0.10;45.70
5459;DHT22;2752;49.992;8.422;2022-12-11T03:49:22;0.10;45.80
5459;DHT22;2752;49.992;8.422;2022-12-11T03:51:51;0.10;46.60
5459;DHT22;2752;49.992;8.422;2022-12-11T03:54:19;0.10;48.20
5459;DHT22;2752;49.992;8.422;2022-12-11T03:56:47;0.20;50.10
5459;DHT22;2752;49.992;8.422;2022-12-11T03:59:16;0.10;49.60
5459;DHT22;2752;49.992;8.422;2022-12-11T04:01:43;0.30;47.70
5459;DHT22;2752;49.992;8.422;2022-12-11T04:04:11;0.30;40.40
5459;DHT22;2752;49.992;8.422;2022-12-11T04:06:38;0.30;39.40
5459;DHT22;2752;49.992;8.422;2022-12-11T04:09:04;0.20;39.30
5459;DHT22;2752;49.992;8.422;2022-12-11T04:11:31;0.20;41.00
5459;DHT22;2752;49.992;8.422;2022-12-11T04:14:01;0.00;42.40
5459;DHT22;2752;49.992;8.422;2022-12-11T04:16:45;0.00;47.30
5459;DHT22;2752;49.992;8.422;2022-12-11T04:19:14;0.00;52.50
5459;DHT22;2752;49.992;8.422;2022-12-11T04:21:58;0.00;54.50
5459;DHT22;2752;49.992;8.422;2022-12-11T04:24:43;0.10;56.80
5459;DHT22;2752;49.992;8.422;2022-12-11T04:27:09;0.00;57.40
5459;DHT22;2752;49.992;8.422;2022-12-11T04:29:36;0.00;58.70
5459;DHT22;2752;49.992;8.422;2022-12-11T04:32:03;0.00;60.20
5459;DHT22;2752;49.992;8.422;2022-12-11T04:34:31;0.00;61.90
5459;DHT22;2752;49.992;8.422;2022-12-11T04:36:58;0.00;63.80
5459;DHT22;2752;49.992;8.422;2022-12-11T04:39:24;0.00;63.70
5459;DHT22;2752;49.992;8.422;2022-12-11T04:41:51;0.10;64.30
5459;DHT22;2752;49.992;8.422;2022-12-11T04:44:18;-0.10;63.80
5459;DHT22;2752;49.992;8.422;2022-12-11T04:46:44;-0.10;64.80
5459;DHT22;2752;49.992;8.422;2022-12-11T04:49:11;-0.10;65.90
5459;DHT22;2752;49.992;8.422;2022-12-11T04:51:39;-0.10;67.70
5459;DHT22;2752;49.992;8.422;2022-12-11T04:54:06;0.00;67.80
5459;DHT22;2752;49.992;8.422;2022-12-11T04:56:32;0.00;68.00
5459;DHT22;2752;49.992;8.422;2022-12-11T04:59:00;0.00;68.30
5459;DHT22;2752;49.992;8.422;2022-12-11T05:01:26;0.00;67.60
5459;DHT22;2752;49.992;8.422;2022-12-11T05:03:53;0.10;66.90
5459;DHT22;2752;49.992;8.422;2022-12-11T05:06:19;0.10;66.30
5459;DHT22;2752;49.992;8.422;2022-12-11T05:08:47;0.10;65.30
5459;DHT22;2752;49.992;8.422;2022-12-11T05:11:15;0.30;65.50
5459;DHT22;2752;49.992;8.422;2022-12-11T05:13:42;0.10;64.90
5459;DHT22;2752;49.992;8.422;2022-12-11T05:16:11;0.10;63.90
5459;DHT22;2752;49.992;8.422;2022-12-11T05:18:39;0.10;62.80
5459;DHT22;2752;49.992;8.422;2022-12-11T05:21:07;0.20;62.30
5459;DHT22;2752;49.992;8.422;2022-12-11T05:23:35;0.10;60.70
5459;DHT22;2752;49.992;8.422;2022-12-11T05:26:05;0.00;59.40
5459;DHT22;2752;49.992;8.422;2022-12-11T05:28:34;0.00;60.10
5459;DHT22;2752;49.992;8.422;2022-12-11T05:31:03;0.00;62.20
5459;DHT22;2752;49.992;8.422;2022-12-11T05:33:30;0.10;63.50
5459;DHT22;2752;49.992;8.422;2022-12-11T05:35:56;0.00;64.10
5459;DHT22;2752;49.992;8.422;2022-12-11T05:38:23;0.30;65.10
5459;DHT22;2752;49.992;8.422;2022-12-11T05:40:56;0.00;64.30
5459;DHT22;2752;49.992;8.422;2022-12-11T05:43:25;0.00;64.90
5459;DHT22;2752;49.992;8.422;2022-12-11T05:45:52;0.00;65.70
5459;DHT22;2752;49.992;8.422;2022-12-11T05:48:19;0.00;64.80
5459;DHT22;2752;49.992;8.422;2022-12-11T05:50:55;-0.10;63.50
5459;DHT22;2752;49.992;8.422;2022-12-11T05:53:22;-0.10;63.80
5459;DHT22;2752;49.992;8.422;2022-12-11T05:55:49;0.10;63.90
5459;DHT22;2752;49.992;8.422;2022-12-11T05:58:16;-0.10;62.70
5459;DHT22;2752;49.992;8.422;2022-12-11T06:00:44;-0.20;62.60
5459;DHT22;2752;49.992;8.422;2022-12-11T06:03:11;-0.20;63.70
5459;DHT22;2752;49.992;8.422;2022-12-11T06:05:38;-0.20;63.30
5459;DHT22;2752;49.992;8.422;2022-12-11T06:08:05;-0.20;64.30
5459;DHT22;2752;49.992;8.422;2022-12-11T06:10:32;-0.20;65.00
5459;DHT22;2752;49.992;8.422;2022-12-11T06:12:59;-0.20;65.50
5459;DHT22;2752;49.992;8.422;2022-12-11T06:15:26;-0.20;65.70
5459;DHT22;2752;49.992;8.422;2022-12-11T06:17:54;-0.20;65.60
5459;DHT22;2752;49.992;8.422;2022-12-11T06:20:21;-0.20;64.80
5459;DHT22;2752;49.992;8.422;2022-12-11T06:22:48;-0.20;65.00
5459;DHT22;2752;49.992;8.422;2022-12-11T06:25:14;-0.20;65.00
5459;DHT22;2752;49.992;8.422;2022-12-11T06:27:41;-0.10;64.20
5459;DHT22;2752;49.992;8.422;2022-12-11T06:30:09;-0.10;59.80
5459;DHT22;2752;49.992;8.422;2022-12-11T06:32:35;-0.10;58.80
5459;DHT22;2752;49.992;8.422;2022-12-11T06:35:04;-0.20;58.90
5459;DHT22;2752;49.992;8.422;2022-12-11T06:37:33;-0.20;59.70
5459;DHT22;2752;49.992;8.422;2022-12-11T06:40:00;-0.10;61.10
5459;DHT22;2752;49.992;8.422;2022-12-11T06:42:28;-0.20;61.40
5459;DHT22;2752;49.992;8.422;2022-12-11T06:44:55;-0.10;62.80
5459;DHT22;2752;49.992;8.422;2022-12-11T06:47:24;-0.20;63.20
5459;DHT22;2752;49.992;8.422;2022-12-11T06:49:50;-0.20;63.90
5459;DHT22;2752;49.992;8.422;2022-12-11T06:52:19;-0.20;64.90
5459;DHT22;2752;49.992;8.422;2022-12-11T06:54:46;-0.20;65.60
5459;DHT22;2752;49.992;8.422;2022-12-11T06:57:13;-0.20;65.30
5459;DHT22;2752;49.992;8.422;2022-12-11T06:59:39;-0.20;66.30
5459;DHT22;2752;49.992;8.422;2022-12-11T07:02:08;-0.20;66.50
5459;DHT22;2752;49.992;8.422;2022-12-11T07:04:35;-0.20;66.00
5459;DHT22;2752;49.992;8.422;2022-12-11T07:07:01;0.00;66.60
5459;DHT22;2752;49.992;8.422;2022-12-11T07:09:29;-0.20;66.70
5459;DHT22;2752;49.992;8.422;2022-12-11T07:11:56;0.00;67.50
5459;DHT22;2752;49.992;8.422;2022-12-11T07:14:23;-0.20;67.80
5459;DHT22;2752;49.992;8.422;2022-12-11T07:16:50;0.00;68.10
5459;DHT22;2752;49.992;8.422;2022-12-11T07:19:17;0.00;67.40
5459;DHT22;2752;49.992;8.422;2022-12-11T07:21:43;0.00;67.50
5459;DHT22;2752;49.992;8.422;2022-12-11T07:24:10;0.00;66.80
5459;DHT22;2752;49.992;8.422;2022-12-11T07:26:38;0.00;66.70
5459;DHT22;2752;49.992;8.422;2022-12-11T07:29:05;0.30;67.20
5459;DHT22;2752;49.992;8.422;2022-12-11T07:31:32;0.10;65.40
5459;DHT22;2752;49.992;8.422;2022-12-11T07:34:02;0.20;64.70
5459;DHT22;2752;49.992;8.422;2022-12-11T07:36:29;0.30;63.40
5459;DHT22;2752;49.992;8.422;2022-12-11T07:38:55;0.10;62.00
5459;DHT22;2752;49.992;8.422;2022-12-11T07:41:22;0.10;62.30
5459;DHT22;2752;49.992;8.422;2022-12-11T07:43:51;0.10;61.90
5459;DHT22;2752;49.992;8.422;2022-12-11T07:46:21;0.10;62.20
5459;DHT22;2752;49.992;8.422;2022-12-11T07:48:48;0.20;62.30
5459;DHT22;2752;49.992;8.422;2022-12-11T07:51:16;0.20;62.00
5459;DHT22;2752;49.992;8.422;2022-12-11T07:53:45;0.20;61.20
5459;DHT22;2752;49.992;8.422;2022-12-11T07:56:12;0.20;60.70
5459;DHT22;2752;49.992;8.422;2022-12-11T07:58:40;0.20;59.70
5459;DHT22;2752;49.992;8.422;2022-12-11T08:01:11;0.30;59.70
5459;DHT22;2752;49.992;8.422;2022-12-11T08:03:39;0.30;58.80
5459;DHT22;2752;49.992;8.422;2022-12-11T08:06:05;0.40;58.90
5459;DHT22;2752;49.992;8.422;2022-12-11T08:08:32;0.40;57.40
5459;DHT22;2752;49.992;8.422;2022-12-11T08:10:59;0.50;58.00
5459;DHT22;2752;49.992;8.422;2022-12-11T08:13:26;0.50;54.80
5459;DHT22;2752;49.992;8.422;2022-12-11T08:15:53;0.50;52.40
5459;DHT22;2752;49.992;8.422;2022-12-11T08:18:21;0.50;50.40
5459;DHT22;2752;49.992;8.422;2022-12-11T08:20:47;0.50;49.00
5459;DHT22;2752;49.992;8.422;2022-12-11T08:23:14;0.50;49.20
5459;DHT22;2752;49.992;8.422;2022-12-11T08:25:41;0.50;49.00
5459;DHT22;2752;49.992;8.422;2022-12-11T08:28:07;0.70;45.80
5459;DHT22;2752;49.992;8.422;2022-12-11T08:30:34;0.70;42.80
5459;DHT22;2752;49.992;8.422;2022-12-11T08:33:03;0.70;42.00
5459;DHT22;2752;49.992;8.422;2022-12-11T08:35:31;0.80;41.50
5459;DHT22;2752;49.992;8.422;2022-12-11T08:37:58;0.70;39.60
5459;DHT22;2752;49.992;8.422;2022-12-11T08:40:24;0.70;38.80
5459;DHT22;2752;49.992;8.422;2022-12-11T08:42:51;0.70;38.20
5459;DHT22;2752;49.992;8.422;2022-12-11T08:45:18;0.70;38.50
5459;DHT22;2752;49.992;8.422;2022-12-11T08:47:45;0.70;37.10
5459;DHT22;2752;49.992;8.422;2022-12-11T08:50:11;0.70;37.20
5459;DHT22;2752;49.992;8.422;2022-12-11T08:52:39;0.60;36.40
5459;DHT22;2752;49.992;8.422;2022-12-11T08:55:06;0.50;36.50
5459;DHT22;2752;49.992;8.422;2022-12-11T08:57:33;0.50;37.70
5459;DHT22;2752;49.992;8.422;2022-12-11T09:00:00;0.50;38.30
5459;DHT22;2752;49.992;8.422;2022-12-11T09:02:27;0.50;39.40
5459;DHT22;2752;49.992;8.422;2022-12-11T09:04:54;0.50;40.10
5459;DHT22;2752;49.992;8.422;2022-12-11T09:07:20;0.60;41.80
5459;DHT22;2752;49.992;8.422;2022-12-11T09:09:49;0.60;41.60
5459;DHT22;2752;49.992;8.422;2022-12-11T09:12:15;0.70;41.20
5459;DHT22;2752;49.992;8.422;2022-12-11T09:14:42;0.80;40.50
5459;DHT22;2752;49.992;8.422;2022-12-11T09:17:09;0.90;39.60
5459;DHT22;2752;49.992;8.422;2022-12-11T09:19:35;0.90;38.40
5459;DHT22;2752;49.992;8.422;2022-12-11T09:22:02;1.00;37.00
5459;DHT22;2752;49.992;8.422;2022-12-11T09:24:29;1.10;35.60
5459;DHT22;2752;49.992;8.422;2022-12-11T09:26:57;1.00;33.10
5459;DHT22;2752;49.992;8.422;2022-12-11T09:29:23;1.10;33.80
5459;DHT22;2752;49.992;8.422;2022-12-11T09:31:50;1.10;32.30
5459;DHT22;2752;49.992;8.422;2022-12-11T09:34:17;1.20;31.60
5459;DHT22;2752;49.992;8.422;2022-12-11T09:36:44;1.20;28.90
5459;DHT22;2752;49.992;8.422;2022-12-11T09:39:12;1.20;26.90
5459;DHT22;2752;49.992;8.422;2022-12-11T09:41:47;1.10;26.10
5459;DHT22;2752;49.992;8.422;2022-12-11T09:44:20;1.00;26.40
5459;DHT22;2752;49.992;8.422;2022-12-11T09:46:48;0.90;27.90
5459;DHT22;2752;49.992;8.422;2022-12-11T09:49:26;1.00;28.70
5459;DHT22;2752;49.992;8.422;2022-12-11T09:52:05;1.10;27.30
5459;DHT22;2752;49.992;8.422;2022-12-11T09:54:32;1.10;26.10
5459;DHT22;2752;49.992;8.422;2022-12-11T09:57:07;1.20;25.30
5459;DHT22;2752;49.992;8.422;2022-12-11T09:59:45;1.20;24.30
5459;DHT22;2752;49.992;8.422;2022-12-11T10:02:22;1.30;23.40
5459;DHT22;2752;49.992;8.422;2022-12-11T10:04:57;1.30;22.20
5459;DHT22;2752;49.992;8.422;2022-12-11T10:07:35;1.30;21.70
5459;DHT22;2752;49.992;8.422;2022-12-11T10:10:09;1.50;21.00
5459;DHT22;2752;49.992;8.422;2022-12-11T10:12:44;1.50;15.60
5459;DHT22;2752;49.992;8.422;2022-12-11T10:15:25;1.40;16.40
5459;DHT22;2752;49.992;8.422;2022-12-11T10:17:58;1.40;14.10
5459;DHT22;2752;49.992;8.422;2022-12-11T10:20:29;1.30;14.90
5459;DHT22;2752;49.992;8.422;2022-12-11T10:22:58;1.20;17.40
5459;DHT22;2752;49.992;8.422;2022-12-11T10:25:27;1.30;19.40
5459;DHT22;2752;49.992;8.422;2022-12-11T10:27:55;1.20;19.00
5459;DHT22;2752;49.992;8.422;2022-12-11T10:30:25;1.10;19.30
5459;DHT22;2752;49.992;8.422;2022-12-11T10:32:56;1.20;21.60
5459;DHT22;2752;49.992;8.422;2022-12-11T10:35:34;1.20;21.70
5459;DHT22;2752;49.992;8.422;2022-12-11T10:38:11;1.10;22.80
5459;DHT22;2752;49.992;8.422;2022-12-11T10:40:42;1.00;19.00
5459;DHT22;2752;49.992;8.422;2022-12-11T10:43:10;1.00;19.00
5459;DHT22;2752;49.992;8.422;2022-12-11T10:45:48;1.00;20.20
5459;DHT22;2752;49.992;8.422;2022-12-11T10:48:14;0.90;21.40
5459;DHT22;2752;49.992;8.422;2022-12-11T10:50:44;0.90;24.40
5459;DHT22;2752;49.992;8.422;2022-12-11T10:53:21;0.90;26.10
5459;DHT22;2752;49.992;8.422;2022-12-11T10:55:48;1.10;27.00
5459;DHT22;2752;49.992;8.422;2022-12-11T10:58:17;1.20;24.60
5459;DHT22;2752;49.992;8.422;2022-12-11T11:00:59;1.10;22.40
5459;DHT22;2752;49.992;8.422;2022-12-11T11:03:28;1.10;22.90
5459;DHT22;2752;49.992;8.422;2022-12-11T11:06:03;1.10;24.60
5459;DHT22;2752;49.992;8.422;2022-12-11T11:08:38;1.20;26.20
5459;DHT22;2752;49.992;8.422;2022-12-11T11:11:05;1.30;25.30
5459;DHT22;2752;49.992;8.422;2022-12-11T11:13:33;1.30;24.90
5459;DHT22;2752;49.992;8.422;2022-12-11T11:16:04;1.30;23.40
5459;DHT22;2752;49.992;8.422;2022-12-11T11:18:32;1.30;24.10
5459;DHT22;2752;49.992;8.422;2022-12-11T11:21:00;1.30;25.00
5459;DHT22;2752;49.992;8.422;2022-12-11T11:23:27;1.40;25.30
5459;DHT22;2752;49.992;8.422;2022-12-11T11:25:56;1.40;24.30
5459;DHT22;2752;49.992;8.422;2022-12-11T11:28:25;1.40;22.80
5459;DHT22;2752;49.992;8.422;2022-12-11T11:30:58;1.40;22.30
5459;DHT22;2752;49.992;8.422;2022-12-11T11:33:28;1.40;22.50
5459;DHT22;2752;49.992;8.422;2022-12-11T11:35:57;1.40;23.20
5459;DHT22;2752;49.992;8.422;2022-12-11T11:38:28;1.50;23.40
5459;DHT22;2752;49.992;8.422;2022-12-11T11:40:59;1.50;22.00
5459;DHT22;2752;49.992;8.422;2022-12-11T11:43:35;1.50;18.90
5459;DHT22;2752;49.992;8.422;2022-12-11T11:46:07;1.40;17.90
5459;DHT22;2752;49.992;8.422;2022-12-11T11:48:44;1.30;18.20
5459;DHT22;2752;49.992;8.422;2022-12-11T11:51:15;1.20;19.80
5459;DHT22;2752;49.992;8.422;2022-12-11T11:53:48;1.30;21.40
5459;DHT22;2752;49.992;8.422;2022-12-11T11:56:19;1.30;21.90
5459;DHT22;2752;49.992;8.422;2022-12-11T11:58:56;1.30;23.50
5459;DHT22;2752;49.992;8.422;2022-12-11T12:01:24;1.40;24.50
5459;DHT22;2752;49.992;8.422;2022-12-11T12:03:53;1.50;24.30
5459;DHT22;2752;49.992;8.422;2022-12-11T12:09:24;1.60;22.60
5459;DHT22;2752;49.992;8.422;2022-12-11T12:11:56;1.60;21.80
5459;DHT22;2752;49.992;8.422;2022-12-11T12:14:30;1.60;21.60
5459;DHT22;2752;49.992;8.422;2022-12-11T12:17:05;1.70;20.10
5459;DHT22;2752;49.992;8.422;2022-12-11T12:19:50;1.80;18.50
5459;DHT22;2752;49.992;8.422;2022-12-11T12:22:38;1.80;16.80
5459;DHT22;2752;49.992;8.422;2022-12-11T12:25:15;1.80;15.80
5459;DHT22;2752;49.992;8.422;2022-12-11T12:27:51;1.70;17.00
5459;DHT22;2752;49.992;8.422;2022-12-11T12:30:19;1.70;16.80
5459;DHT22;2752;49.992;8.422;2022-12-11T12:32:56;1.70;14.30
5459;DHT22;2752;49.992;8.422;2022-12-11T12:35:33;1.70;17.40
5459;DHT22;2752;49.992;8.422;2022-12-11T12:38:07;1.70;19.90
5459;DHT22;2752;49.992;8.422;2022-12-11T12:40:41;1.70;19.40
5459;DHT22;2752;49.992;8.422;2022-12-11T12:43:27;1.70;20.70
5459;DHT22;2752;49.992;8.422;2022-12-11T12:46:05;1.70;20.80
5459;DHT22;2752;49.992;8.422;2022-12-11T12:48:35;1.70;20.20
5459;DHT22;2752;49.992;8.422;2022-12-11T12:51:04;1.70;20.60
5459;DHT22;2752;49.992;8.422;2022-12-11T12:53:33;1.40;20.00
5459;DHT22;2752;49.992;8.422;2022-12-11T12:56:02;1.70;20.80
5459;DHT22;2752;49.992;8.422;2022-12-11T12:58:40;1.70;19.30
5459;DHT22;2752;49.992;8.422;2022-12-11T13:01:08;1.70;18.30
5459;DHT22;2752;49.992;8.422;2022-12-11T13:03:49;1.60;17.00
5459;DHT22;2752;49.992;8.422;2022-12-11T13:06:28;1.60;16.60
5459;DHT22;2752;49.992;8.422;2022-12-11T13:08:55;1.60;17.70
5459;DHT22;2752;49.992;8.422;2022-12-11T13:11:30;1.50;18.50
5459;DHT22;2752;49.992;8.422;2022-12-11T13:14:02;1.50;18.40
5459;DHT22;2752;49.992;8.422;2022-12-11T13:16:35;1.40;19.70
5459;DHT22;2752;49.992;8.422;2022-12-11T13:19:03;1.40;19.70
5459;DHT22;2752;49.992;8.422;2022-12-11T13:21:54;1.40;20.80
5459;DHT22;2752;49.992;8.422;2022-12-11T13:24:25;1.40;22.50
5459;DHT22;2752;49.992;8.422;2022-12-11T13:26:53;1.30;21.60
5459;DHT22;2752;49.992;8.422;2022-12-11T13:29:31;1.40;23.20
5459;DHT22;2752;49.992;8.422;2022-12-11T13:31:59;1.60;20.70
5459;DHT22;2752;49.992;8.422;2022-12-11T13:34:28;1.60;19.90
5459;DHT22;2752;49.992;8.422;2022-12-11T13:36:58;1.70;19.80
5459;DHT22;2752;49.992;8.422;2022-12-11T13:39:29;1.70;18.90
5459;DHT22;2752;49.992;8.422;2022-12-11T13:42:00;1.70;19.50
5459;DHT22;2752;49.992;8.422;2022-12-11T13:44:29;1.80;18.20
5459;DHT22;2752;49.992;8.422;2022-12-11T13:46:59;1.90;15.00
5459;DHT22;2752;49.992;8.422;2022-12-11T13:49:29;1.80;11.80
5459;DHT22;2752;49.992;8.422;2022-12-11T13:52:00;1.70;13.50
5459;DHT22;2752;49.992;8.422;2022-12-11T13:54:29;1.80;15.70
5459;DHT22;2752;49.992;8.422;2022-12-11T13:57:12;1.80;15.60
5459;DHT22;2752;49.992;8.422;2022-12-11T13:59:42;1.80;15.50
5459;DHT22;2752;49.992;8.422;2022-12-11T14:02:14;1.80;13.60
5459;DHT22;2752;49.992;8.422;2022-12-11T14:04:44;1.80;12.90
5459;DHT22;2752;49.992;8.422;2022-12-11T14:07:19;1.80;12.00
5459;DHT22;2752;49.992;8.422;2022-12-11T14:09:48;1.80;11.50
5459;DHT22;2752;49.992;8.422;2022-12-11T14:12:17;1.80;12.90
5459;DHT22;2752;49.992;8.422;2022-12-11T14:14:47;1.80;14.10
5459;DHT22;2752;49.992;8.422;2022-12-11T14:17:20;1.80;14.50
5459;DHT22;2752;49.992;8.422;2022-12-11T14:19:48;1.80;15.00
5459;DHT22;2752;49.992;8.422;2022-12-11T14:22:18;1.70;13.80
5459;DHT22;2752;49.992;8.422;2022-12-11T14:24:49;1.70;14.50
5459;DHT22;2752;49.992;8.422;2022-12-11T14:27:17;1.60;15.60
5459;DHT22;2752;49.992;8.422;2022-12-11T14:29:44;1.60;17.30
5459;DHT22;2752;49.992;8.422;2022-12-11T14:32:17;1.60;17.20
5459;DHT22;2752;49.992;8.422;2022-12-11T14:34:46;1.60;17.00
5459;DHT22;2752;49.992;8.422;2022-12-11T14:37:18;1.50;17.10
5459;DHT22;2752;49.992;8.422;2022-12-11T14:39:52;1.60;16.90
5459;DHT22;2752;49.992;8.422;2022-12-11T14:42:23;1.60;16.30
5459;DHT22;2752;49.992;8.422;2022-12-11T14:44:54;1.50;16.40
5459;DHT22;2752;49.992;8.422;2022-12-11T14:47:24;1.50;17.90
5459;DHT22;2752;49.992;8.422;2022-12-11T14:49:55;1.50;18.90
5459;DHT22;2752;49.992;8.422;2022-12-11T14:52:27;1.60;17.80
5459;DHT22;2752;49.992;8.422;2022-12-11T14:55:00;1.60;16.70
5459;DHT22;2752;49.992;8.422;2022-12-11T14:57:30;1.50;14.90
5459;DHT22;2752;49.992;8.422;2022-12-11T14:59:57;1.50;14.70
5459;DHT22;2752;49.992;8.422;2022-12-11T15:02:28;1.40;14.20
5459;DHT22;2752;49.992;8.422;2022-12-11T15:05:03;1.40;14.60
5459;DHT22;2752;49.992;8.422;2022-12-11T15:07:33;1.30;16.00
5459;DHT22;2752;49.992;8.422;2022-12-11T15:09:59;1.30;16.60
5459;DHT22;2752;49.992;8.422;2022-12-11T15:12:26;1.20;17.50
5459;DHT22;2752;49.992;8.422;2022-12-11T15:14:54;1.30;19.20
5459;DHT22;2752;49.992;8.422;2022-12-11T15:17:23;1.20;19.60
5459;DHT22;2752;49.992;8.422;2022-12-11T15:19:52;1.30;19.20
5459;DHT22;2752;49.992;8.422;2022-12-11T15:22:21;1.30;19.90
5459;DHT22;2752;49.992;8.422;2022-12-11T15:24:52;1.40;19.90
5459;DHT22;2752;49.992;8.422;2022-12-11T15:27:25;1.40;17.30
5459;DHT22;2752;49.992;8.422;2022-12-11T15:29:54;1.30;18.00
5459;DHT22;2752;49.992;8.422;2022-12-11T15:32:21;1.30;19.70
5459;DHT22;2752;49.992;8.422;2022-12-11T15:34:49;1.30;21.50
5459;DHT22;2752;49.992;8.422;2022-12-11T15:37:18;1.30;21.30
5459;DHT22;2752;49.992;8.422;2022-12-11T15:39:45;1.20;22.00
5459;DHT22;2752;49.992;8.422;2022-12-11T15:42:17;1.20;23.40
5459;DHT22;2752;49.992;8.422;2022-12-11T15:44:45;1.20;24.10
5459;DHT22;2752;49.992;8.422;2022-12-11T15:47:13;1.20;24.40
5459;DHT22;2752;49.992;8.422;2022-12-11T15:49:40;1.10;25.50
5459;DHT22;2752;49.992;8.422;2022-12-11T15:52:06;1.00;26.10
5459;DHT22;2752;49.992;8.422;2022-12-11T15:54:33;1.00;28.10
5459;DHT22;2752;49.992;8.422;2022-12-11T15:57:03;1.10;29.10
5459;DHT22;2752;49.992;8.422;2022-12-11T15:59:33;1.10;29.40
5459;DHT22;2752;49.992;8.422;2022-12-11T16:02:00;1.10;30.00
5459;DHT22;2752;49.992;8.422;2022-12-11T16:04:26;1.70;30.80
5459;DHT22;2752;49.992;8.422;2022-12-11T16:06:53;1.10;31.10
5459;DHT22;2752;49.992;8.422;2022-12-11T16:09:20;1.20;30.60
5459;DHT22;2752;49.992;8.422;2022-12-11T16:11:46;1.10;30.60
5459;DHT22;2752;49.992;8.422;2022-12-11T16:14:13;1.10;30.00
5459;DHT22;2752;49.992;8.422;2022-12-11T16:16:41;1.10;30.50
5459;DHT22;2752;49.992;8.422;2022-12-11T16:19:08;1.10;31.30
5459;DHT22;2752;49.992;8.422;2022-12-11T16:21:35;1.00;31.40
5459;DHT22;2752;49.992;8.422;2022-12-11T16:24:01;1.00;32.60
5459;DHT22;2752;49.992;8.422;2022-12-11T16:26:28;1.00;33.70
5459;DHT22;2752;49.992;8.422;2022-12-11T16:28:55;0.90;34.60
5459;DHT22;2752;49.992;8.422;2022-12-11T16:31:21;0.90;35.40
5459;DHT22;2752;49.992;8.422;2022-12-11T16:33:49;0.90;37.00
5459;DHT22;2752;49.992;8.422;2022-12-11T16:36:17;0.90;37.00